| time (UTC) | temp F | wind direction | speed MPH | gust MPH | rain 1hr in | rain 24hr in | rain mn in | humidity % | barometer mb |
| 20260505210052 | 89 | 248 | 2.0 | 11.0 | 0.00 | 0.00 | 0.00 | 55 | 1004.7 |
| 20260505204549 | 88 | 320 | 6.0 | 13.0 | 0.00 | 0.00 | 0.00 | 57 | 1004.6 |
| 20260505203054 | 88 | 320 | 3.0 | 12.0 | 0.00 | 0.00 | 0.00 | 59 | 1004.9 |
| 20260505201605 | 88 | 237 | 7.0 | 18.0 | 0.00 | 0.00 | 0.00 | 58 | 1005.0 |
| 20260505194555 | 87 | 320 | 8.0 | 18.0 | 0.00 | 0.00 | 0.00 | 60 | 1005.2 |
| 20260505193052 | 86 | 320 | 8.0 | 19.0 | 0.00 | 0.00 | 0.00 | 62 | 1005.2 |
| 20260505191554 | 84 | 320 | 5.0 | 21.0 | 0.00 | 0.00 | 0.00 | 65 | 1005.2 |
| 20260505190059 | 84 | 264 | 11.0 | 22.0 | 0.00 | 0.00 | 0.00 | 65 | 1005.3 |
| 20260505184554 | 84 | 320 | 11.0 | 20.0 | 0.00 | 0.00 | 0.00 | 65 | 1005.5 |
| 20260505183059 | 83 | 320 | 5.0 | 14.0 | 0.00 | 0.00 | 0.00 | 66 | 1005.6 |
| 20260505181555 | 83 | 320 | 8.0 | 17.0 | 0.00 | 0.00 | 0.00 | 66 | 1005.7 |
| 20260505180058 | 82 | 320 | 9.0 | 18.0 | 0.00 | 0.00 | 0.00 | 67 | 1005.7 |
| 20260505174553 | 82 | 320 | 7.0 | 19.0 | 0.00 | 0.00 | 0.00 | 68 | 1005.9 |
| 20260505173107 | 81 | 254 | 8.0 | 18.0 | 0.00 | 0.00 | 0.00 | 68 | 1006.0 |
| 20260505171556 | 80 | 320 | 7.0 | 17.0 | 0.00 | 0.00 | 0.00 | 70 | 1005.8 |
| 20260505170053 | 80 | 320 | 6.0 | 19.0 | 0.00 | 0.00 | 0.00 | 70 | 1005.9 |
| 20260505164614 | 80 | 320 | 10.0 | 17.0 | 0.00 | 0.00 | 0.00 | 70 | 1005.7 |
| 20260505163054 | 79 | 148 | 8.0 | 27.0 | 0.00 | 0.00 | 0.00 | 71 | 1005.6 |
| 20260505161558 | 79 | 320 | 9.0 | 19.0 | 0.00 | 0.00 | 0.00 | 72 | 1005.5 |
| 20260505153058 | 76 | 320 | 7.0 | 20.0 | 0.00 | 0.00 | 0.00 | 76 | 1005.9 |
| 20260505151558 | 76 | 320 | 8.0 | 24.0 | 0.00 | 0.00 | 0.00 | 76 | 1005.9 |
| 20260505124559 | 70 | 320 | 4.0 | 14.0 | 0.00 | 0.00 | 0.00 | 84 | 1005.3 |
| 20260505123054 | 69 | 320 | 8.0 | 19.0 | 0.00 | 0.00 | 0.00 | 84 | 1005.0 |
| 20260505121556 | 69 | 320 | 6.0 | 16.0 | 0.00 | 0.00 | 0.00 | 85 | 1004.9 |
| 20260505120053 | 69 | 320 | 6.0 | 18.0 | 0.00 | 0.00 | 0.00 | 85 | 1004.7 |
| 20260505114553 | 69 | 320 | 8.0 | 15.0 | 0.00 | 0.00 | 0.00 | 85 | 1004.9 |
| 20260505113054 | 69 | 320 | 7.0 | 15.0 | 0.00 | 0.00 | 0.00 | 84 | 1004.6 |
| 20260505111552 | 69 | 320 | 5.0 | 16.0 | 0.00 | 0.00 | 0.00 | 84 | 1004.6 |
| 20260505101554 | 70 | 320 | 10.0 | 22.0 | 0.00 | 0.00 | 0.00 | 82 | 1004.5 |
| 20260505100054 | 71 | 320 | 11.0 | 19.0 | 0.00 | 0.00 | 0.00 | 82 | 1004.7 |
| 20260505094550 | 71 | 320 | 5.0 | 22.0 | 0.00 | 0.00 | 0.00 | 81 | 1004.7 |
| 20260505093048 | 71 | 214 | 6.0 | 19.0 | 0.00 | 0.00 | 0.00 | 81 | 1004.7 |
| 20260505091605 | 70 | 320 | 7.0 | 18.0 | 0.00 | 0.00 | 0.00 | 82 | 1004.9 |
| 20260505090054 | 70 | 320 | 6.0 | 17.0 | 0.00 | 0.00 | 0.00 | 82 | 1005.0 |
| 20260505084554 | 70 | 320 | 5.0 | 17.0 | 0.00 | 0.00 | 0.00 | 82 | 1004.9 |
| 20260505083059 | 70 | 170 | 8.0 | 20.0 | 0.00 | 0.00 | 0.00 | 82 | 1004.9 |
| 20260505081553 | 70 | 320 | 8.0 | 22.0 | 0.00 | 0.00 | 0.00 | 81 | 1005.0 |
| 20260505080103 | 70 | 320 | 10.0 | 20.0 | 0.00 | 0.00 | 0.00 | 81 | 1005.2 |
| 20260505074551 | 71 | 320 | 7.0 | 21.0 | 0.00 | 0.00 | 0.00 | 80 | 1005.4 |
| 20260505073058 | 71 | 320 | 7.0 | 19.0 | 0.00 | 0.00 | 0.00 | 80 | 1005.4 |
| 20260505071555 | 71 | 320 | 8.0 | 27.0 | 0.00 | 0.00 | 0.00 | 79 | 1006.0 |
| 20260505070055 | 71 | 320 | 8.0 | 17.0 | 0.00 | 0.00 | 0.00 | 79 | 1006.1 |
| 20260505064551 | 72 | 320 | 6.0 | 16.0 | 0.00 | 0.00 | 0.00 | 78 | 1006.4 |
| 20260505063111 | 72 | 320 | 7.0 | 19.0 | 0.00 | 0.00 | 0.00 | 77 | 1006.4 |
| 20260505061556 | 72 | 320 | 5.0 | 21.0 | 0.00 | 0.00 | 0.00 | 76 | 1006.6 |
| 20260505060058 | 72 | 320 | 8.0 | 19.0 | 0.00 | 0.00 | 0.00 | 75 | 1006.5 |
| 20260505054606 | 73 | 320 | 7.0 | 16.0 | 0.00 | 0.00 | 0.00 | 74 | 1006.3 |
| 20260505053058 | 73 | 187 | 7.0 | 17.0 | 0.00 | 0.00 | 0.00 | 73 | 1006.4 |
| 20260505051555 | 74 | 320 | 8.0 | 21.0 | 0.00 | 0.00 | 0.00 | 72 | 1006.8 |
| 20260505041557 | 74 | 320 | 9.0 | 20.0 | 0.00 | 0.00 | 0.00 | 70 | 1006.7 |
| 20260505040055 | 74 | 110 | 7.0 | 17.0 | 0.00 | 0.00 | 0.00 | 70 | 1006.9 |
| 20260505034553 | 74 | 320 | 8.0 | 18.0 | 0.00 | 0.00 | 0.00 | 70 | 1007.0 |
| 20260505033055 | 74 | 320 | 5.0 | 16.0 | 0.00 | 0.00 | 0.00 | 70 | 1006.6 |
| 20260505031600 | 74 | 320 | 5.0 | 15.0 | 0.00 | 0.00 | 0.00 | 70 | 1006.6 |
| 20260505030053 | 74 | 320 | 7.0 | 14.0 | 0.00 | 0.00 | 0.00 | 70 | 1006.8 |
| 20260505024603 | 74 | 320 | 5.0 | 14.0 | 0.00 | 0.00 | 0.00 | 70 | 1006.7 |
| 20260505023056 | 74 | 320 | 5.0 | 16.0 | 0.00 | 0.00 | 0.00 | 70 | 1006.6 |
| 20260505021605 | 75 | 320 | 7.0 | 15.0 | 0.00 | 0.00 | 0.00 | 69 | 1006.3 |
| 20260505020057 | 75 | 135 | 4.0 | 15.0 | 0.00 | 0.00 | 0.00 | 68 | 1006.5 |
| 20260505014610 | 75 | 320 | 6.0 | 18.0 | 0.00 | 0.00 | 0.00 | 67 | 1006.4 |
| 20260505013058 | 76 | 320 | 6.0 | 12.0 | 0.00 | 0.00 | 0.00 | 67 | 1006.6 |
| 20260505011606 | 76 | 164 | 4.0 | 14.0 | 0.00 | 0.00 | 0.00 | 66 | 1006.6 |
| 20260505010057 | 76 | 320 | 7.0 | 17.0 | 0.00 | 0.00 | 0.00 | 65 | 1006.5 |
| 20260505004555 | 77 | 191 | 8.0 | 20.0 | 0.00 | 0.00 | 0.00 | 65 | 1006.6 |
| 20260505003053 | 77 | 320 | 6.0 | 22.0 | 0.00 | 0.00 | 0.00 | 64 | 1006.6 |
| 20260505001557 | 77 | 320 | 8.0 | 19.0 | 0.00 | 0.00 | 0.00 | 63 | 1006.8 |
| 20260505000107 | 78 | 320 | 10.0 | 23.0 | 0.00 | 0.00 | 0.00 | 63 | 1006.9 |
| 20260504234552 | 78 | 320 | 12.0 | 25.0 | 0.00 | 0.00 | 0.00 | 62 | 1007.0 |
| 20260504233108 | 78 | 320 | 10.0 | 23.0 | 0.00 | 0.00 | 0.00 | 62 | 1007.0 |
| 20260504231553 | 79 | 320 | 12.0 | 24.0 | 0.00 | 0.00 | 0.00 | 61 | 1007.2 |
| 20260504230055 | 79 | 320 | 10.0 | 21.0 | 0.00 | 0.00 | 0.00 | 61 | 1007.3 |
| 20260504224558 | 79 | 320 | 10.0 | 28.0 | 0.00 | 0.00 | 0.00 | 60 | 1007.4 |
| 20260504223127 | 79 | 320 | 14.0 | 29.0 | 0.00 | 0.00 | 0.00 | 60 | 1007.6 |
| 20260504221556 | 79 | 320 | 13.0 | 26.0 | 0.00 | 0.00 | 0.00 | 59 | 1007.6 |
| 20260504220057 | 79 | 320 | 11.0 | 26.0 | 0.00 | 0.00 | 0.00 | 60 | 1007.7 |
| 20260504214555 | 80 | 320 | 13.0 | 27.0 | 0.00 | 0.00 | 0.00 | 59 | 1007.8 |
| 20260504213104 | 81 | 320 | 11.0 | 21.0 | 0.00 | 0.00 | 0.00 | 63 | 1008.0 |
| 20260504211553 | 80 | 320 | 14.0 | 29.0 | 0.00 | 0.00 | 0.00 | 58 | 1008.2 |